createdAt,value
2023-05-02T00:00:36.076Z, 36.94
2023-05-02T00:01:36.070Z, 36.96
2023-05-02T00:02:36.271Z, 36.93
2023-05-02T00:03:36.222Z, 36.87
2023-05-02T00:04:36.260Z, 36.86
2023-05-02T00:05:36.079Z, 36.89
2023-05-02T00:06:36.104Z, 36.86
2023-05-02T00:07:36.177Z, 36.82
2023-05-02T00:08:36.160Z, 36.83
2023-05-02T00:09:36.203Z, 36.79
2023-05-02T00:10:36.173Z, 36.75
2023-05-02T00:11:36.176Z, 36.80
2023-05-02T00:12:36.180Z, 36.79
2023-05-02T00:13:36.174Z, 36.79
2023-05-02T00:14:36.200Z, 36.81
2023-05-02T00:15:36.222Z, 36.76
2023-05-02T00:16:36.294Z, 36.77
2023-05-02T00:17:36.288Z, 36.77
2023-05-02T00:18:36.278Z, 36.76
2023-05-02T00:19:36.271Z, 36.74
2023-05-02T00:20:36.279Z, 36.69
2023-05-02T00:21:36.393Z, 36.69
2023-05-02T00:22:36.349Z, 36.70
2023-05-02T00:23:36.356Z, 36.70
2023-05-02T00:24:36.356Z, 36.65
2023-05-02T00:25:36.349Z, 36.61
2023-05-02T00:26:36.339Z, 36.60
2023-05-02T00:27:36.343Z, 36.57
2023-05-02T00:28:36.395Z, 36.58
2023-05-02T00:29:36.375Z, 36.56
2023-05-02T00:30:36.469Z, 36.60
2023-05-02T00:31:36.499Z, 36.60
2023-05-02T00:32:36.583Z, 36.53
2023-05-02T00:33:36.458Z, 36.49
2023-05-02T00:34:36.500Z, 36.49
2023-05-02T00:35:36.497Z, 36.50
2023-05-02T00:36:36.508Z, 36.47
2023-05-02T00:37:36.497Z, 36.52
2023-05-02T00:38:36.503Z, 36.52
2023-05-02T00:39:36.500Z, 36.49
2023-05-02T00:40:36.510Z, 36.46
2023-05-02T00:41:36.524Z, 36.46
2023-05-02T00:42:36.755Z, 36.47
2023-05-02T00:43:36.632Z, 36.49
2023-05-02T00:44:36.594Z, 36.47
2023-05-02T00:45:36.639Z, 36.44
2023-05-02T00:46:36.697Z, 36.44
2023-05-02T00:47:36.642Z, 36.41
2023-05-02T00:48:36.646Z, 36.40
2023-05-02T00:49:36.624Z, 36.40
2023-05-02T00:50:36.653Z, 36.42
2023-05-02T00:51:36.641Z, 36.42
2023-05-02T00:52:36.650Z, 36.41
2023-05-02T00:53:36.691Z, 36.40
2023-05-02T00:54:36.669Z, 36.36
2023-05-02T00:55:36.713Z, 36.33
2023-05-02T00:56:36.776Z, 36.35
2023-05-02T00:57:36.745Z, 36.34
2023-05-02T00:58:36.743Z, 36.34
2023-05-02T00:59:36.734Z, 36.30
2023-05-02T01:00:36.819Z, 36.34
2023-05-02T01:01:36.848Z, 36.33
2023-05-02T01:02:36.893Z, 36.29
2023-05-02T01:03:36.946Z, 36.30
2023-05-02T01:04:36.825Z, 36.30
2023-05-02T01:05:36.820Z, 36.32
2023-05-02T01:06:36.943Z, 36.29
2023-05-02T01:07:36.840Z, 36.28
2023-05-02T01:08:36.847Z, 36.24
2023-05-02T01:09:36.859Z, 36.25
2023-05-02T01:10:36.878Z, 36.26
2023-05-02T01:11:36.875Z, 36.24
2023-05-02T01:12:36.883Z, 36.24
2023-05-02T01:13:36.939Z, 36.22
2023-05-02T01:14:36.931Z, 36.23
2023-05-02T01:15:36.951Z, 36.24
2023-05-02T01:16:37.044Z, 36.24
2023-05-02T01:17:37.025Z, 36.17
2023-05-02T01:18:36.967Z, 36.15
2023-05-02T01:19:36.986Z, 36.15
2023-05-02T01:20:36.980Z, 36.08
2023-05-02T01:21:37.033Z, 36.06
2023-05-02T01:22:36.977Z, 36.05
2023-05-02T01:23:37.024Z, 36.08
2023-05-02T01:24:37.029Z, 36.10
2023-05-02T01:25:37.043Z, 36.10
2023-05-02T01:26:37.057Z, 36.08
2023-05-02T01:27:37.049Z, 36.05
2023-05-02T01:28:37.068Z, 36.05
2023-05-02T01:29:37.088Z, 36.09
2023-05-02T01:30:37.096Z, 36.03
2023-05-02T01:31:37.200Z, 36.05
2023-05-02T01:32:37.216Z, 36.02
2023-05-02T01:33:37.125Z, 36.00
2023-05-02T01:34:37.202Z, 35.96
2023-05-02T01:35:37.183Z, 35.97
2023-05-02T01:36:37.249Z, 35.98
2023-05-02T01:37:37.215Z, 36.00
2023-05-02T01:38:37.215Z, 35.96
2023-05-02T01:39:37.222Z, 35.94
2023-05-02T01:40:37.280Z, 35.93
2023-05-02T01:41:37.254Z, 35.90
2023-05-02T01:42:37.310Z, 35.86
2023-05-02T01:43:37.290Z, 35.88
2023-05-02T01:44:37.281Z, 35.90
2023-05-02T01:45:37.351Z, 35.91
2023-05-02T01:46:37.359Z, 35.91
2023-05-02T01:47:37.434Z, 35.93
2023-05-02T01:48:37.382Z, 35.91
2023-05-02T01:49:37.415Z, 35.92
2023-05-02T01:50:37.433Z, 35.94
2023-05-02T01:51:37.409Z, 35.86
2023-05-02T01:52:37.428Z, 35.84
2023-05-02T01:53:37.402Z, 35.85
2023-05-02T01:54:37.498Z, 35.88
2023-05-02T01:55:37.491Z, 35.88
2023-05-02T01:56:37.513Z, 35.87
2023-05-02T01:57:37.478Z, 35.86
2023-05-02T01:58:37.474Z, 35.80
2023-05-02T01:59:37.489Z, 35.84
2023-05-02T02:00:38.806Z, 35.79
2023-05-02T02:01:37.579Z, 35.76
2023-05-02T02:02:37.508Z, 35.76
2023-05-02T02:03:37.625Z, 35.76
2023-05-02T02:04:37.685Z, 35.76
2023-05-02T02:05:37.634Z, 35.76
2023-05-02T02:06:37.730Z, 35.76
2023-05-02T02:07:37.615Z, 35.71
2023-05-02T02:08:37.616Z, 35.73
2023-05-02T02:09:37.634Z, 35.73
2023-05-02T02:10:37.632Z, 35.70
2023-05-02T02:11:37.676Z, 35.69
2023-05-02T02:12:37.708Z, 35.70
2023-05-02T02:13:37.717Z, 35.64
2023-05-02T02:14:37.713Z, 35.63
2023-05-02T02:15:37.697Z, 35.67
2023-05-02T02:16:37.757Z, 35.67
2023-05-02T02:17:37.778Z, 35.68
2023-05-02T02:18:37.727Z, 35.69
2023-05-02T02:19:37.735Z, 35.64
2023-05-02T02:20:37.765Z, 35.64
2023-05-02T02:21:37.771Z, 35.64
2023-05-02T02:22:37.788Z, 35.61
2023-05-02T02:23:37.856Z, 35.58
2023-05-02T02:24:37.831Z, 35.56
2023-05-02T02:25:37.839Z, 35.58
2023-05-02T02:26:37.848Z, 35.52
2023-05-02T02:27:37.868Z, 35.51
2023-05-02T02:28:37.854Z, 35.53
2023-05-02T02:29:37.896Z, 35.51
2023-05-02T02:30:37.983Z, 35.51
2023-05-02T02:31:37.910Z, 35.51
2023-05-02T02:32:38.001Z, 35.49
2023-05-02T02:33:37.927Z, 35.50
2023-05-02T02:34:37.969Z, 35.50
2023-05-02T02:35:37.949Z, 35.49
2023-05-02T02:36:37.941Z, 35.53
2023-05-02T02:37:37.956Z, 35.50
2023-05-02T02:38:37.978Z, 35.50
2023-05-02T02:39:38.052Z, 35.47
2023-05-02T02:40:38.053Z, 35.49
2023-05-02T02:41:38.093Z, 35.45
2023-05-02T02:42:38.063Z, 35.46
2023-05-02T02:43:38.104Z, 35.45
2023-05-02T02:44:38.078Z, 35.40
2023-05-02T02:45:38.092Z, 35.38
2023-05-02T02:46:38.113Z, 35.38
2023-05-02T02:47:38.163Z, 35.38
2023-05-02T02:48:38.185Z, 35.37
2023-05-02T02:49:38.168Z, 35.39
2023-05-02T02:50:38.151Z, 35.38
2023-05-02T02:51:38.160Z, 35.36
2023-05-02T02:52:38.152Z, 35.37
2023-05-02T02:53:38.233Z, 35.38
2023-05-02T02:54:38.194Z, 35.34
2023-05-02T02:55:38.248Z, 35.35
2023-05-02T02:56:38.199Z, 35.33
2023-05-02T02:57:38.233Z, 35.31
2023-05-02T02:58:38.219Z, 35.32
2023-05-02T02:59:38.308Z, 35.30
2023-05-02T03:00:38.281Z, 35.30
2023-05-02T03:01:38.405Z, 35.28
2023-05-02T03:02:38.328Z, 35.30
2023-05-02T03:03:38.317Z, 35.28
2023-05-02T03:04:38.304Z, 35.29
2023-05-02T03:05:38.302Z, 35.32
2023-05-02T03:06:38.451Z, 35.30
2023-05-02T03:07:38.367Z, 35.26
2023-05-02T03:08:38.423Z, 35.22
2023-05-02T03:09:38.404Z, 35.22
2023-05-02T03:10:38.446Z, 35.21
2023-05-02T03:11:38.424Z, 35.22
2023-05-02T03:12:38.414Z, 35.22
2023-05-02T03:13:38.477Z, 35.23
2023-05-02T03:14:38.461Z, 35.21
2023-05-02T03:15:38.526Z, 35.24
2023-05-02T03:16:38.497Z, 35.22
2023-05-02T03:17:38.591Z, 35.14
2023-05-02T03:18:38.521Z, 35.15
2023-05-02T03:19:38.558Z, 35.13
2023-05-02T03:20:38.509Z, 35.12
2023-05-02T03:21:38.540Z, 35.11
2023-05-02T03:22:38.518Z, 35.13
2023-05-02T03:23:38.556Z, 35.11
2023-05-02T03:24:38.616Z, 35.12
2023-05-02T03:25:38.585Z, 35.12
2023-05-02T03:26:38.590Z, 35.10
2023-05-02T03:27:38.594Z, 35.13
2023-05-02T03:28:38.601Z, 35.13
2023-05-02T03:29:38.616Z, 35.08
2023-05-02T03:30:38.642Z, 35.07
2023-05-02T03:31:38.715Z, 35.81
2023-05-02T03:32:38.733Z, 37.28
2023-05-02T03:33:38.738Z, 39.28
2023-05-02T03:34:38.718Z, 40.42
2023-05-02T03:35:38.757Z, 41.18
2023-05-02T03:36:38.761Z, 41.73
2023-05-02T03:37:38.785Z, 42.15
2023-05-02T03:38:38.765Z, 42.57
2023-05-02T03:39:38.763Z, 42.99
2023-05-02T03:40:38.814Z, 43.30
2023-05-02T03:41:38.789Z, 43.60
2023-05-02T03:42:38.818Z, 43.83
2023-05-02T03:43:38.818Z, 44.12
2023-05-02T03:44:38.813Z, 44.37
2023-05-02T03:45:38.836Z, 44.64
2023-05-02T03:46:38.874Z, 44.96
2023-05-02T03:47:38.882Z, 45.23
2023-05-02T03:48:38.874Z, 45.52
2023-05-02T03:49:38.887Z, 45.76
2023-05-02T03:50:38.884Z, 46.03
2023-05-02T03:51:38.888Z, 46.28
2023-05-02T03:52:38.965Z, 46.47
2023-05-02T03:53:38.963Z, 46.64
2023-05-02T03:54:39.004Z, 46.81
2023-05-02T03:55:38.974Z, 46.91
2023-05-02T03:56:41.305Z, 47.00
2023-05-02T03:57:39.002Z, 47.12
2023-05-02T03:58:39.002Z, 47.22
2023-05-02T03:59:39.026Z, 47.26
2023-05-02T04:00:39.017Z, 47.35
2023-05-02T04:01:39.212Z, 47.34
2023-05-02T04:02:39.346Z, 47.37
2023-05-02T04:03:39.151Z, 47.37
2023-05-02T04:04:39.076Z, 47.38
2023-05-02T04:05:39.072Z, 47.35
2023-05-02T04:06:39.220Z, 47.34
2023-05-02T04:07:39.173Z, 47.31
2023-05-02T04:08:39.158Z, 47.26
2023-05-02T04:09:39.167Z, 47.23
2023-05-02T04:10:39.167Z, 47.18
2023-05-02T04:11:39.161Z, 47.13
2023-05-02T04:12:39.155Z, 47.13
2023-05-02T04:13:39.252Z, 47.08
2023-05-02T04:14:39.248Z, 47.06
2023-05-02T04:15:39.232Z, 46.95
2023-05-02T04:16:39.284Z, 46.77
2023-05-02T04:17:39.265Z, 46.54
2023-05-02T04:18:39.257Z, 46.36
2023-05-02T04:19:39.254Z, 46.13
2023-05-02T04:20:39.336Z, 45.99
2023-05-02T04:21:39.312Z, 45.84
2023-05-02T04:22:39.320Z, 45.70
2023-05-02T04:23:39.311Z, 45.60
2023-05-02T04:24:39.347Z, 47.81
2023-05-02T04:25:39.333Z, 52.54
2023-05-02T04:26:39.344Z, 55.19
2023-05-02T04:27:39.359Z, 58.17
2023-05-02T04:28:39.356Z, 64.22
2023-05-02T04:29:39.375Z, 64.74
2023-05-02T04:30:39.510Z, 57.09
2023-05-02T04:31:39.429Z, 55.55
2023-05-02T04:32:39.501Z, 56.15
2023-05-02T04:33:39.428Z, 58.02
2023-05-02T04:34:39.436Z, 60.83
2023-05-02T04:35:39.433Z, 70.65
2023-05-02T04:36:39.450Z, 63.61
2023-05-02T04:37:39.516Z, 59.62
2023-05-02T04:38:39.498Z, 58.44
2023-05-02T04:39:39.504Z, 56.00
2023-05-02T04:40:39.494Z, 55.23
2023-05-02T04:41:39.521Z, 55.48
2023-05-02T04:42:39.612Z, 56.40
2023-05-02T04:43:39.563Z, 56.99
2023-05-02T04:44:39.561Z, 56.92
2023-05-02T04:45:39.650Z, 56.94
2023-05-02T04:46:39.642Z, 56.60
2023-05-02T04:47:39.639Z, 56.18
2023-05-02T04:48:39.600Z, 55.77
2023-05-02T04:49:39.660Z, 55.47
2023-05-02T04:50:39.650Z, 55.17
2023-05-02T04:51:39.720Z, 55.00
2023-05-02T04:52:39.702Z, 54.90
2023-05-02T04:53:39.786Z, 54.74
2023-05-02T04:54:39.711Z, 54.55
2023-05-02T04:55:39.710Z, 54.32
2023-05-02T04:56:39.724Z, 54.16
2023-05-02T04:57:39.720Z, 53.94
2023-05-02T04:58:39.738Z, 53.75
2023-05-02T04:59:39.744Z, 53.59
2023-05-02T05:00:39.805Z, 53.43
2023-05-02T05:01:39.818Z, 53.26
2023-05-02T05:02:39.872Z, 53.12
2023-05-02T05:03:39.965Z, 52.97
2023-05-02T05:04:39.807Z, 52.79
2023-05-02T05:05:39.957Z, 52.65
2023-05-02T05:06:39.897Z, 52.46
2023-05-02T05:07:39.836Z, 52.23
2023-05-02T05:08:39.930Z, 52.06
2023-05-02T05:09:39.865Z, 51.88
2023-05-02T05:10:39.929Z, 51.80
2023-05-02T05:11:39.899Z, 51.66
2023-05-02T05:12:39.952Z, 51.54
2023-05-02T05:13:39.921Z, 51.45
2023-05-02T05:14:39.923Z, 51.32
2023-05-02T05:15:39.997Z, 51.21
2023-05-02T05:16:40.119Z, 51.13
2023-05-02T05:17:40.052Z, 51.08
2023-05-02T05:18:40.003Z, 51.15
2023-05-02T05:19:39.992Z, 50.98
2023-05-02T05:20:40.061Z, 50.88
2023-05-02T05:21:40.030Z, 50.74
2023-05-02T05:22:40.097Z, 50.62
2023-05-02T05:23:40.306Z, 50.55
2023-05-02T05:24:40.066Z, 50.41
2023-05-02T05:25:40.059Z, 50.34
2023-05-02T05:26:40.086Z, 50.23
2023-05-02T05:27:40.070Z, 50.13
2023-05-02T05:28:40.087Z, 50.07
2023-05-02T05:29:40.085Z, 49.99
2023-05-02T05:30:40.105Z, 49.92
2023-05-02T05:31:40.173Z, 49.78
2023-05-02T05:32:40.200Z, 49.74
2023-05-02T05:33:40.282Z, 49.73
2023-05-02T05:34:40.231Z, 49.72
2023-05-02T05:35:40.249Z, 49.63
2023-05-02T05:36:40.279Z, 49.56
2023-05-02T05:37:40.311Z, 49.57
2023-05-02T05:38:40.308Z, 49.44
2023-05-02T05:39:40.227Z, 49.36
2023-05-02T05:40:40.265Z, 49.33
2023-05-02T05:41:40.264Z, 49.28
2023-05-02T05:42:40.282Z, 49.24
2023-05-02T05:43:40.300Z, 49.17
2023-05-02T05:44:40.314Z, 49.19
2023-05-02T05:45:40.312Z, 49.10
2023-05-02T05:46:40.395Z, 49.08
2023-05-02T05:47:40.527Z, 49.10
2023-05-02T05:48:40.452Z, 49.02
2023-05-02T05:49:40.407Z, 48.96
2023-05-02T05:50:40.416Z, 48.98
2023-05-02T05:51:40.405Z, 48.95
2023-05-02T05:52:40.404Z, 48.97
2023-05-02T05:53:40.486Z, 48.92
2023-05-02T05:54:40.470Z, 48.82
2023-05-02T05:55:42.172Z, 48.78
2023-05-02T05:56:40.484Z, 48.75
2023-05-02T05:57:40.463Z, 48.77
2023-05-02T05:58:40.530Z, 48.76
2023-05-02T05:59:40.491Z, 48.73
2023-05-02T06:00:40.579Z, 48.76
2023-05-02T06:01:40.540Z, 48.73
2023-05-02T06:02:40.722Z, 48.75
2023-05-02T06:03:40.747Z, 48.71
2023-05-02T06:04:40.693Z, 48.66
2023-05-02T06:05:40.594Z, 48.59
2023-05-02T06:06:40.628Z, 48.64
2023-05-02T06:07:40.623Z, 48.61
2023-05-02T06:08:40.610Z, 48.55
2023-05-02T06:09:40.664Z, 48.53
2023-05-02T06:10:40.638Z, 48.61
2023-05-02T06:11:40.652Z, 48.56
2023-05-02T06:12:40.660Z, 48.50
2023-05-02T06:13:40.682Z, 48.38
2023-05-02T06:14:40.674Z, 48.42
2023-05-02T06:15:40.758Z, 48.38
2023-05-02T06:16:40.756Z, 48.36
2023-05-02T06:17:40.737Z, 48.39
2023-05-02T06:18:40.753Z, 48.35
2023-05-02T06:19:40.727Z, 48.29
2023-05-02T06:20:40.815Z, 48.33
2023-05-02T06:21:40.803Z, 48.32
2023-05-02T06:22:40.839Z, 48.25
2023-05-02T06:23:40.797Z, 48.18
2023-05-02T06:24:40.789Z, 48.13
2023-05-02T06:25:40.852Z, 48.11
2023-05-02T06:26:40.812Z, 48.13
2023-05-02T06:27:40.878Z, 48.12
2023-05-02T06:28:40.883Z, 48.13
2023-05-02T06:29:40.865Z, 48.11
2023-05-02T06:30:40.869Z, 48.06
2023-05-02T06:31:40.980Z, 48.07
2023-05-02T06:32:40.959Z, 48.10
2023-05-02T06:33:40.926Z, 48.15
2023-05-02T06:34:40.975Z, 48.06
2023-05-02T06:35:40.939Z, 48.03
2023-05-02T06:36:41.008Z, 48.04
2023-05-02T06:37:40.972Z, 48.07
2023-05-02T06:38:40.981Z, 48.00
2023-05-02T06:39:40.990Z, 47.99
2023-05-02T06:40:40.989Z, 47.96
2023-05-02T06:41:41.060Z, 47.98
2023-05-02T06:42:41.042Z, 48.02
2023-05-02T06:43:41.065Z, 47.98
2023-05-02T06:44:41.029Z, 47.92
2023-05-02T06:45:41.064Z, 47.91
2023-05-02T06:46:41.066Z, 47.78
2023-05-02T06:47:41.080Z, 47.76
2023-05-02T06:48:41.098Z, 47.73
2023-05-02T06:49:41.064Z, 47.68
2023-05-02T06:50:41.058Z, 47.64
2023-05-02T06:51:41.096Z, 47.59
2023-05-02T06:52:41.168Z, 47.66
2023-05-02T06:53:41.151Z, 47.69
2023-05-02T06:54:41.188Z, 47.62
2023-05-02T06:55:41.164Z, 47.58
2023-05-02T06:56:41.230Z, 47.57
2023-05-02T06:57:41.236Z, 47.59
2023-05-02T06:58:41.223Z, 47.60
2023-05-02T06:59:41.240Z, 47.61
2023-05-02T07:00:41.279Z, 47.58
2023-05-02T07:01:41.550Z, 47.50
2023-05-02T07:02:41.314Z, 47.58
2023-05-02T07:03:41.357Z, 47.57
2023-05-02T07:04:41.431Z, 47.57
2023-05-02T07:05:41.271Z, 47.52
2023-05-02T07:06:41.349Z, 47.47
2023-05-02T07:07:41.279Z, 47.54
2023-05-02T07:08:41.267Z, 47.44
2023-05-02T07:09:41.294Z, 47.47
2023-05-02T07:10:41.326Z, 47.44
2023-05-02T07:11:41.405Z, 47.35
2023-05-02T07:12:41.385Z, 47.39
2023-05-02T07:13:41.381Z, 47.40
2023-05-02T07:14:41.370Z, 47.32
2023-05-02T07:15:41.378Z, 47.32
2023-05-02T07:16:41.482Z, 47.32
2023-05-02T07:17:41.428Z, 47.33
2023-05-02T07:18:41.396Z, 47.32
2023-05-02T07:19:43.365Z, 47.24
2023-05-02T07:20:41.453Z, 47.23
2023-05-02T07:21:41.452Z, 47.20
2023-05-02T07:22:41.465Z, 47.19
2023-05-02T07:23:41.475Z, 47.10
2023-05-02T07:24:41.560Z, 47.07
2023-05-02T07:25:41.524Z, 47.09
2023-05-02T07:26:41.582Z, 47.08
2023-05-02T07:27:41.561Z, 46.98
2023-05-02T07:28:41.565Z, 46.98
2023-05-02T07:29:41.572Z, 46.91
2023-05-02T07:30:41.572Z, 46.90
2023-05-02T07:31:41.660Z, 46.90
2023-05-02T07:32:41.653Z, 46.88
2023-05-02T07:33:41.625Z, 46.87
2023-05-02T07:34:41.606Z, 46.85
2023-05-02T07:35:41.611Z, 46.90
2023-05-02T07:36:41.697Z, 46.89
2023-05-02T07:37:41.668Z, 46.83
2023-05-02T07:38:41.706Z, 46.82
2023-05-02T07:39:41.676Z, 46.85
2023-05-02T07:40:41.723Z, 46.89
2023-05-02T07:41:41.699Z, 46.90
2023-05-02T07:42:41.701Z, 46.82
2023-05-02T07:43:41.703Z, 46.77
2023-05-02T07:44:41.723Z, 46.85
2023-05-02T07:45:41.779Z, 46.84
2023-05-02T07:46:41.758Z, 46.76
2023-05-02T07:47:41.888Z, 46.68
2023-05-02T07:48:41.806Z, 46.72
2023-05-02T07:49:41.833Z, 46.72
2023-05-02T07:50:41.824Z, 46.62
2023-05-02T07:51:41.814Z, 46.64
2023-05-02T07:52:41.818Z, 46.57
2023-05-02T07:53:41.832Z, 46.55
2023-05-02T07:54:41.854Z, 46.52
2023-05-02T07:55:41.862Z, 46.47
2023-05-02T07:56:41.933Z, 46.58
2023-05-02T07:57:41.909Z, 46.56
2023-05-02T07:58:41.943Z, 46.54
2023-05-02T07:59:41.923Z, 46.50
2023-05-02T08:00:41.976Z, 46.48
2023-05-02T08:01:41.963Z, 46.39
2023-05-02T08:02:42.099Z, 46.36
2023-05-02T08:03:42.233Z, 46.35
2023-05-02T08:04:42.001Z, 46.35
2023-05-02T08:05:42.039Z, 46.33
2023-05-02T08:06:42.032Z, 46.38
2023-05-02T08:07:42.047Z, 46.29
2023-05-02T08:08:42.027Z, 46.28
2023-05-02T08:09:42.037Z, 46.26
2023-05-02T08:10:42.131Z, 46.24
2023-05-02T08:11:42.095Z, 46.23
2023-05-02T08:12:42.173Z, 46.15
2023-05-02T08:13:42.139Z, 46.16
2023-05-02T08:14:42.143Z, 46.14
2023-05-02T08:15:42.178Z, 46.21
2023-05-02T08:16:44.110Z, 46.18
2023-05-02T08:17:42.187Z, 46.16
2023-05-02T08:18:42.169Z, 46.08
2023-05-02T08:19:42.242Z, 46.08
2023-05-02T08:20:42.231Z, 46.11
2023-05-02T08:21:42.231Z, 46.16
2023-05-02T08:22:42.239Z, 46.11
2023-05-02T08:23:42.289Z, 46.06
2023-05-02T08:24:42.288Z, 46.08
2023-05-02T08:25:42.278Z, 46.02
2023-05-02T08:26:42.272Z, 46.06
2023-05-02T08:27:42.283Z, 46.02
2023-05-02T08:28:42.299Z, 46.00
2023-05-02T08:29:42.308Z, 45.96
2023-05-02T08:30:42.318Z, 45.99
2023-05-02T08:31:42.390Z, 46.02
2023-05-02T08:32:42.398Z, 45.96
2023-05-02T08:33:42.369Z, 45.96
2023-05-02T08:34:42.400Z, 45.97
2023-05-02T08:35:42.385Z, 45.90
2023-05-02T08:36:42.393Z, 45.87
2023-05-02T08:37:42.397Z, 45.86
2023-05-02T08:38:42.434Z, 45.89
2023-05-02T08:39:42.448Z, 45.89
2023-05-02T08:40:43.318Z, 45.88
2023-05-02T08:41:42.537Z, 45.86
2023-05-02T08:42:42.501Z, 45.88
2023-05-02T08:43:42.563Z, 45.84
2023-05-02T08:44:42.553Z, 45.77
2023-05-02T08:45:42.613Z, 45.78
2023-05-02T08:46:42.617Z, 45.77
2023-05-02T08:47:42.666Z, 45.74
2023-05-02T08:48:42.586Z, 45.77
2023-05-02T08:49:42.590Z, 45.71
2023-05-02T08:50:42.620Z, 45.67
2023-05-02T08:51:42.633Z, 45.67
2023-05-02T08:52:42.616Z, 45.62
2023-05-02T08:53:42.621Z, 45.62
2023-05-02T08:54:42.621Z, 45.63
2023-05-02T08:55:42.773Z, 45.63
2023-05-02T08:56:42.637Z, 45.65
2023-05-02T08:57:42.677Z, 45.59
2023-05-02T08:58:42.660Z, 45.58
2023-05-02T08:59:42.656Z, 45.50
2023-05-02T09:00:42.840Z, 45.49
2023-05-02T09:01:42.748Z, 45.50
2023-05-02T09:02:42.802Z, 45.48
2023-05-02T09:03:42.778Z, 45.48
2023-05-02T09:04:42.888Z, 45.52
2023-05-02T09:05:42.763Z, 45.53
2023-05-02T09:06:42.867Z, 45.51
2023-05-02T09:07:42.846Z, 45.43
2023-05-02T09:08:42.816Z, 45.35
2023-05-02T09:09:42.824Z, 45.34
2023-05-02T09:10:42.816Z, 45.39
2023-05-02T09:11:42.903Z, 45.37
2023-05-02T09:12:42.840Z, 45.31
2023-05-02T09:13:42.932Z, 45.29
2023-05-02T09:14:42.890Z, 45.26
2023-05-02T09:15:42.927Z, 45.21
2023-05-02T09:16:42.941Z, 45.19
2023-05-02T09:17:42.962Z, 45.18
2023-05-02T09:18:42.956Z, 45.21
2023-05-02T09:19:42.942Z, 45.25
2023-05-02T09:20:42.935Z, 45.21
2023-05-02T09:21:42.957Z, 45.20
2023-05-02T09:22:42.938Z, 45.12
2023-05-02T09:23:42.968Z, 45.14
2023-05-02T09:24:42.967Z, 45.11
2023-05-02T09:25:42.965Z, 45.13
2023-05-02T09:26:42.975Z, 45.10
2023-05-02T09:27:42.985Z, 45.05
2023-05-02T09:28:43.066Z, 44.98
2023-05-02T09:29:43.023Z, 44.99
2023-05-02T09:30:43.175Z, 45.00
2023-05-02T09:31:55.751Z, 44.93
2023-05-02T09:32:43.191Z, 44.94
2023-05-02T09:33:43.118Z, 44.86
2023-05-02T09:34:43.181Z, 44.93
2023-05-02T09:35:43.138Z, 44.94
2023-05-02T09:36:43.156Z, 44.85
2023-05-02T09:37:43.140Z, 44.83
2023-05-02T09:38:43.166Z, 44.83
2023-05-02T09:39:43.170Z, 44.84
2023-05-02T09:40:43.163Z, 44.80
2023-05-02T09:41:43.197Z, 44.81
2023-05-02T09:42:43.186Z, 44.90
2023-05-02T09:43:43.267Z, 44.79
2023-05-02T09:44:43.262Z, 44.78
2023-05-02T09:45:43.265Z, 44.74
2023-05-02T09:46:43.415Z, 44.79
2023-05-02T09:47:43.318Z, 44.77
2023-05-02T09:48:43.275Z, 44.76
2023-05-02T09:49:43.462Z, 44.76
2023-05-02T09:50:43.285Z, 44.73
2023-05-02T09:51:43.312Z, 44.72
2023-05-02T09:52:43.324Z, 44.72
2023-05-02T09:53:43.344Z, 44.66
2023-05-02T09:54:43.419Z, 44.56
2023-05-02T09:55:43.368Z, 44.55
2023-05-02T09:56:43.460Z, 44.57
2023-05-02T09:57:43.433Z, 44.58
2023-05-02T09:58:43.497Z, 44.59
2023-05-02T09:59:43.481Z, 44.59
2023-05-02T10:00:43.490Z, 44.56
2023-05-02T10:01:43.520Z, 45.22
2023-05-02T10:02:43.529Z, 46.40
2023-05-02T10:03:43.755Z, 47.06
2023-05-02T10:04:43.566Z, 47.51
2023-05-02T10:05:43.575Z, 47.74
2023-05-02T10:06:43.630Z, 47.86
2023-05-02T10:07:43.568Z, 47.91
2023-05-02T10:08:43.558Z, 47.85
2023-05-02T10:09:43.591Z, 47.83
2023-05-02T10:10:43.574Z, 47.87
2023-05-02T10:11:43.567Z, 47.98
2023-05-02T10:12:43.576Z, 48.03
2023-05-02T10:13:43.593Z, 48.09
2023-05-02T10:14:43.655Z, 48.15
2023-05-02T10:15:43.718Z, 48.13
2023-05-02T10:16:43.640Z, 48.17
2023-05-02T10:17:43.732Z, 48.22
2023-05-02T10:18:43.717Z, 48.25
2023-05-02T10:19:43.704Z, 48.26
2023-05-02T10:20:43.707Z, 48.28
2023-05-02T10:21:43.695Z, 48.29
2023-05-02T10:22:43.707Z, 48.28
2023-05-02T10:23:43.702Z, 48.31
2023-05-02T10:24:43.879Z, 48.31
2023-05-02T10:25:43.824Z, 48.32
2023-05-02T10:26:43.794Z, 48.33
2023-05-02T10:27:43.809Z, 48.29
2023-05-02T10:28:43.799Z, 48.27
2023-05-02T10:29:43.963Z, 48.27
2023-05-02T10:30:43.803Z, 48.25
2023-05-02T10:31:44.892Z, 48.02
2023-05-02T10:32:43.911Z, 47.76
2023-05-02T10:33:43.824Z, 47.50
2023-05-02T10:34:43.841Z, 47.30
2023-05-02T10:35:43.851Z, 47.16
2023-05-02T10:36:43.883Z, 47.00
2023-05-02T10:37:43.875Z, 46.81
2023-05-02T10:38:43.959Z, 46.74
2023-05-02T10:39:43.944Z, 46.63
2023-05-02T10:40:43.977Z, 46.56
2023-05-02T10:41:43.939Z, 46.46
2023-05-02T10:42:44.016Z, 46.39
2023-05-02T10:43:44.039Z, 46.35
2023-05-02T10:44:44.037Z, 46.29
2023-05-02T10:45:44.012Z, 46.29
2023-05-02T10:46:44.111Z, 46.19
2023-05-02T10:47:44.141Z, 46.07
2023-05-02T10:48:44.126Z, 46.00
2023-05-02T10:49:44.105Z, 46.02
2023-05-02T10:50:44.096Z, 46.01
2023-05-02T10:51:44.087Z, 45.98
2023-05-02T10:52:44.086Z, 45.92
2023-05-02T10:53:44.149Z, 45.90
2023-05-02T10:54:44.131Z, 45.94
2023-05-02T10:55:44.137Z, 45.86
2023-05-02T10:56:44.127Z, 45.78
2023-05-02T10:57:44.133Z, 45.74
2023-05-02T10:58:44.157Z, 45.75
2023-05-02T10:59:44.194Z, 45.68
2023-05-02T11:00:44.277Z, 45.59
2023-05-02T11:01:44.328Z, 45.51
2023-05-02T11:02:44.333Z, 45.59
2023-05-02T11:03:44.244Z, 45.55
2023-05-02T11:04:44.241Z, 45.55
2023-05-02T11:05:44.231Z, 45.52
2023-05-02T11:06:44.410Z, 45.50
2023-05-02T11:07:44.305Z, 45.54
2023-05-02T11:08:44.268Z, 45.49
2023-05-02T11:09:44.479Z, 45.42
2023-05-02T11:10:44.306Z, 45.39
2023-05-02T11:11:44.409Z, 45.44
2023-05-02T11:12:44.358Z, 45.43
2023-05-02T11:13:44.364Z, 45.39
2023-05-02T11:14:44.394Z, 45.31
2023-05-02T11:15:44.371Z, 45.38
2023-05-02T11:16:44.408Z, 45.32
2023-05-02T11:17:44.429Z, 45.26
2023-05-02T11:18:44.476Z, 45.26
2023-05-02T11:19:44.454Z, 45.27
2023-05-02T11:20:44.458Z, 45.20
2023-05-02T11:21:44.462Z, 45.14
2023-05-02T11:22:44.448Z, 45.13
2023-05-02T11:23:44.462Z, 45.14
2023-05-02T11:24:44.540Z, 45.12
2023-05-02T11:25:44.528Z, 45.06
2023-05-02T11:26:44.494Z, 45.06
2023-05-02T11:27:44.554Z, 45.03
2023-05-02T11:28:44.581Z, 45.01
2023-05-02T11:29:44.569Z, 44.96
2023-05-02T11:30:44.561Z, 44.96
2023-05-02T11:31:44.576Z, 44.93
2023-05-02T11:32:44.594Z, 44.88
2023-05-02T11:33:44.554Z, 44.90
2023-05-02T11:34:44.565Z, 44.92
2023-05-02T11:35:44.576Z, 44.91
2023-05-02T11:36:44.610Z, 44.85
2023-05-02T11:37:44.602Z, 44.84
2023-05-02T11:38:44.679Z, 44.89
2023-05-02T11:39:44.649Z, 44.86
2023-05-02T11:40:44.644Z, 44.78
2023-05-02T11:41:44.667Z, 44.79
2023-05-02T11:42:44.673Z, 44.70
2023-05-02T11:43:44.686Z, 44.73
2023-05-02T11:44:44.700Z, 44.69
2023-05-02T11:45:44.766Z, 44.69
2023-05-02T11:46:44.860Z, 44.72
2023-05-02T11:47:44.769Z, 44.66
2023-05-02T11:48:44.739Z, 44.64
2023-05-02T11:49:44.912Z, 44.59
2023-05-02T11:50:49.812Z, 44.58
2023-05-02T11:51:44.820Z, 44.53
2023-05-02T11:52:44.800Z, 44.54
2023-05-02T11:53:44.854Z, 44.51
2023-05-02T11:54:44.852Z, 44.53
2023-05-02T11:55:44.830Z, 44.51
2023-05-02T11:56:44.843Z, 44.47
2023-05-02T11:57:44.831Z, 44.49
2023-05-02T11:58:44.931Z, 44.40
2023-05-02T11:59:44.914Z, 44.39
2023-05-02T12:00:44.903Z, 44.41
2023-05-02T12:01:44.906Z, 44.39
2023-05-02T12:02:45.034Z, 44.45
2023-05-02T12:03:45.159Z, 44.37
2023-05-02T12:04:44.993Z, 44.34
2023-05-02T12:05:45.001Z, 44.33
2023-05-02T12:06:45.108Z, 44.33
2023-05-02T12:07:45.013Z, 44.30
2023-05-02T12:08:45.032Z, 44.36
2023-05-02T12:09:45.040Z, 44.32
2023-05-02T12:10:45.020Z, 44.32
2023-05-02T12:11:45.127Z, 44.30
2023-05-02T12:12:45.096Z, 44.28
2023-05-02T12:13:45.092Z, 44.29
2023-05-02T12:14:45.114Z, 44.27
2023-05-02T12:15:45.106Z, 44.25
2023-05-02T12:16:45.243Z, 44.23
2023-05-02T12:17:45.343Z, 44.16
2023-05-02T12:18:45.174Z, 44.15
2023-05-02T12:19:45.143Z, 44.12
2023-05-02T12:20:45.216Z, 44.11
2023-05-02T12:21:45.189Z, 44.05
2023-05-02T12:22:45.189Z, 44.06
2023-05-02T12:23:45.183Z, 44.00
2023-05-02T12:24:45.193Z, 44.03
2023-05-02T12:25:45.271Z, 44.05
2023-05-02T12:26:45.242Z, 43.99
2023-05-02T12:27:45.232Z, 43.98
2023-05-02T12:28:45.242Z, 43.96